Flight Track Log - Related Links

Times and Time Zones

All times are in EDT time to prevent confusion due to time zone crossing. See the N589H flight status page for this flight to view local times or setup timezone preferences in your user account.


Time Position Orientation Groundspeed Altitude Reporting Facility
EDT Latitude Longitude Course Direction KTS MPH feet Rate Location/Type
Sat 09:36:24 AM 27.9000 -82.6833 241° Southwest 132 152 400  Level Tampa TRACON
Sat 09:37:00 AM 27.8833 -82.7167 241° Southwest 152 175 1,400 1,563 Climbing Tampa TRACON
Sat 09:38:00 AM 27.8833 -82.7500 270° West 166 191 2,900 1,600 Climbing Tampa TRACON
Sat 09:39:00 AM 27.9333 -82.7667 344° North 216 249 4,600 1,905 Climbing Tampa TRACON
Sat 09:40:06 AM 28.0000 -82.7667 360° North 222 255 6,900 2,143 Climbing Tampa TRACON
Sat 09:41:06 AM 28.0667 -82.7500 12° North 222 255 9,100 1,602 Climbing Tampa TRACON
Sat 09:43:32 AM 28.2250 -82.6922 18° North 263 303 12,400 1,565 Climbing Jacksonville Center
Sat 09:44:33 AM 28.3000 -82.6614 20° North 274 315 14,500 2,083 Climbing Jacksonville Center
Sat 09:45:33 AM 28.3689 -82.6283 23° Northeast 279 321 16,600 1,900 Climbing Jacksonville Center
Sat 09:46:33 AM 28.4375 -82.5950 23° Northeast 272 313 18,300 1,650 Climbing Jacksonville Center
Sat 09:47:33 AM 28.5083 -82.5619 22° Northeast 272 313 19,900 1,600 Climbing Jacksonville Center
Sat 09:48:33 AM 28.5833 -82.5286 21° North 272 313 21,500 1,600 Climbing Jacksonville Center
Sat 09:49:33 AM 28.6606 -82.5164 North 272 313 23,100 1,550 Climbing Jacksonville Center
Sat 09:50:33 AM 28.7419 -82.5019 North 282 325 24,600 1,450 Climbing Jacksonville Center
Sat 09:51:33 AM 28.8256 -82.4969 North 351 404 26,000 1,350 Climbing Jacksonville Center
Sat 09:52:33 AM 28.9089 -82.5108 352° North 340 391 27,300 1,300 Climbing Jacksonville Center
Sat 09:53:33 AM 28.9925 -82.5200 355° North 314 361 28,600 1,250 Climbing Jacksonville Center
Sat 09:54:33 AM 29.0761 -82.5339 352° North 304 350 29,800 1,000 Climbing Jacksonville Center
Sat 09:55:33 AM 29.1617 -82.5453 353° North 304 350 30,600 900 Climbing Jacksonville Center
Sat 09:56:33 AM 29.2494 -82.5569 353° North 304 350 31,600 800 Climbing Jacksonville Center
Sat 09:57:33 AM 29.3350 -82.5733 351° North 309 356 32,200 550 Climbing Jacksonville Center
Sat 09:58:33 AM 29.4206 -82.5875 352° North 309 356 32,700 400 Climbing Jacksonville Center
Sat 09:59:33 AM 29.5125 -82.5919 358° North 322 371 33,000 150 Climbing Jacksonville Center
Sat 10:00:33 AM 29.6086 -82.5917 360° North 333 383 33,000  Level Jacksonville Center
Sat 10:01:33 AM 29.7108 -82.5889 North 343 395 33,000  Level Jacksonville Center
Sat 10:02:33 AM 29.8131 -82.5886 360° North 355 409 33,000  Level Jacksonville Center
Sat 10:03:33 AM 29.9300 -82.5881 360° North 370 426 33,000  Level Jacksonville Center
Sat 10:04:33 AM 30.0114 -82.5783 North 375 432 33,000  Level Jacksonville Center
Sat 10:05:33 AM 30.1072 -82.4989 36° Northeast 364 419 33,000  Level Jacksonville Center
Sat 10:06:33 AM 30.1883 -82.4167 41° Northeast 370 426 33,000  Level Jacksonville Center
Sat 10:07:33 AM 30.2819 -82.3272 40° Northeast 383 441 33,000  Level Jacksonville Center
Sat 10:08:33 AM 30.3672 -82.2522 37° Northeast 389 448 33,000  Level Jacksonville Center
Sat 10:09:33 AM 30.4544 -82.1744 38° Northeast 389 448 33,000  Level Jacksonville Center
Sat 10:10:33 AM 30.5417 -82.0967 38° Northeast 389 448 33,000  Level Jacksonville Center
Sat 10:11:33 AM 30.6269 -82.0233 36° Northeast 389 448 33,000  Level Jacksonville Center
Sat 10:12:33 AM 30.7161 -81.9453 37° Northeast 389 448 33,000  Level Jacksonville Center
Sat 10:13:33 AM 30.8031 -81.8694 37° Northeast 389 448 33,000  Level Jacksonville Center
Sat 10:14:33 AM 30.8903 -81.7911 38° Northeast 389 448 33,000  Level Jacksonville Center
Sat 10:15:33 AM 30.9772 -81.7150 37° Northeast 389 448 33,000  Level Jacksonville Center
Sat 10:16:33 AM 31.0642 -81.6364 38° Northeast 389 448 33,000  Level Jacksonville Center
Sat 10:17:33 AM 31.1489 -81.5622 37° Northeast 389 448 33,000  Level Jacksonville Center
Sat 10:18:33 AM 31.2339 -81.4833 38° Northeast 384 442 33,000  Level Jacksonville Center
Sat 10:19:33 AM 31.3164 -81.4092 38° Northeast 385 443 33,000  Level Jacksonville Center
Sat 10:20:33 AM 31.4033 -81.3322 37° Northeast 385 443 33,000  Level Jacksonville Center
Sat 10:21:33 AM 31.4797 -81.2628 38° Northeast 385 443 33,000  Level Jacksonville Center
Sat 10:22:33 AM 31.5744 -81.1783 37° Northeast 385 443 33,000  Level Jacksonville Center
Sat 10:23:33 AM 31.6528 -81.1061 38° Northeast 390 449 33,000  Level Jacksonville Center
Sat 10:24:33 AM 31.7456 -81.0211 38° Northeast 390 449 33,000  Level Jacksonville Center
Sat 10:25:33 AM 31.8319 -80.9411 38° Northeast 390 449 33,000  Level Jacksonville Center
Sat 10:26:33 AM 31.9103 -80.8711 37° Northeast 390 449 33,000  Level Jacksonville Center
Sat 10:27:33 AM 32.0050 -80.7856 37° Northeast 390 449 33,000  Level Jacksonville Center
Sat 10:28:33 AM 32.0811 -80.7128 39° Northeast 390 449 33,000  Level Jacksonville Center
Sat 10:29:33 AM 32.1753 -80.6222 39° Northeast 390 449 33,000  Level Jacksonville Center
Sat 10:30:33 AM 32.2617 -80.5439 37° Northeast 390 449 33,000  Level Jacksonville Center
Sat 10:31:33 AM 32.3478 -80.4631 38° Northeast 390 449 33,000  Level Jacksonville Center
Sat 10:32:33 AM 32.4361 -80.3819 38° Northeast 390 449 33,000  Level Jacksonville Center
Sat 10:33:33 AM 32.5158 -80.3083 38° Northeast 390 449 33,000  Level Jacksonville Center
Sat 10:34:33 AM 32.6061 -80.2242 38° Northeast 395 455 33,000  Level Jacksonville Center
Sat 10:35:33 AM 32.6942 -80.1428 38° Northeast 395 455 33,000  Level Jacksonville Center
Sat 10:36:33 AM 32.7839 -80.0561 39° Northeast 400 460 33,000  Level Jacksonville Center
Sat 10:37:33 AM 32.8719 -79.9717 39° Northeast 400 460 33,000  Level Jacksonville Center
Sat 10:38:33 AM 32.9617 -79.8894 38° Northeast 405 466 33,000  Level Jacksonville Center
Sat 10:39:33 AM 33.0494 -79.8047 39° Northeast 405 466 33,000  Level Jacksonville Center
Sat 10:40:33 AM 33.1372 -79.7222 38° Northeast 405 466 33,000  Level Jacksonville Center
Sat 10:41:33 AM 33.2228 -79.6397 39° Northeast 400 460 33,000  Level Jacksonville Center
Sat 10:42:33 AM 33.3103 -79.5572 38° Northeast 400 460 33,000  Level Jacksonville Center
Sat 10:43:33 AM 33.3936 -79.4769 39° Northeast 394 453 33,000  Level Jacksonville Center
Sat 10:44:33 AM 33.4811 -79.3964 38° Northeast 389 448 33,000  Level Jacksonville Center
Sat 10:45:33 AM 33.5644 -79.3133 40° Northeast 389 448 33,000  Level Jacksonville Center
Sat 10:46:33 AM 33.6478 -79.2325 39° Northeast 389 448 33,000  Level Jacksonville Center
Sat 10:47:33 AM 33.7308 -79.1542 38° Northeast 383 441 33,000  Level Jacksonville Center
Sat 10:48:33 AM 33.8142 -79.0733 39° Northeast 383 441 33,000  Level Jacksonville Center
Sat 10:49:33 AM 33.8969 -78.9894 40° Northeast 389 448 33,000  Level Jacksonville Center
Sat 10:52:04 AM 34.1147 -78.7825 38° Northeast 386 444 33,000  Level Washington Center
Sat 10:53:05 AM 34.1961 -78.7003 40° Northeast 386 444 33,000  Level Washington Center
Sat 10:54:05 AM 34.2644 -78.6375 37° Northeast 386 444 33,000  Level Washington Center
Sat 10:55:03 AM 34.3522 -78.5478 40° Northeast 386 444 33,000  Level Washington Center
Sat 10:56:04 AM 34.4358 -78.4650 39° Northeast 386 444 33,000  Level Washington Center
Sat 10:57:05 AM 34.5189 -78.3847 39° Northeast 386 444 33,000  Level Washington Center
Sat 10:58:03 AM 34.6000 -78.3044 39° Northeast 386 444 33,000  Level Washington Center
Sat 10:59:04 AM 34.6856 -78.2214 39° Northeast 386 444 33,000  Level Washington Center
Sat 11:00:05 AM 34.7664 -78.1381 40° Northeast 386 444 33,000  Level Washington Center
Sat 11:01:05 AM 34.8539 -78.0469 41° Northeast 386 444 33,000  Level Washington Center
Sat 11:02:03 AM 34.9350 -77.9658 39° Northeast 380 437 33,000  Level Washington Center
Sat 11:03:03 AM 35.0158 -77.8847 39° Northeast 380 437 33,000  Level Washington Center
Sat 11:04:05 AM 35.0967 -77.8031 40° Northeast 380 437 33,000  Level Washington Center
Sat 11:05:03 AM 35.1794 -77.7189 40° Northeast 380 437 33,000  Level Washington Center
Sat 11:06:04 AM 35.2581 -77.6372 40° Northeast 380 437 33,000  Level Washington Center
Sat 11:07:05 AM 35.3408 -77.5553 39° Northeast 380 437 33,000  Level Washington Center
Sat 11:08:05 AM 35.4194 -77.4731 40° Northeast 380 437 33,000  Level Washington Center
Sat 11:09:03 AM 35.5000 -77.3933 39° Northeast 380 437 33,000  Level Washington Center
Sat 11:10:04 AM 35.5825 -77.3083 40° Northeast 380 437 33,000  Level Washington Center
Sat 11:11:05 AM 35.6631 -77.2256 40° Northeast 380 437 33,000  Level Washington Center
Sat 11:12:03 AM 35.7433 -77.1428 40° Northeast 380 437 33,000  Level Washington Center
Sat 11:13:04 AM 35.8217 -77.0597 41° Northeast 380 437 33,000  Level Washington Center
Sat 11:14:04 AM 35.9019 -76.9767 40° Northeast 380 437 33,000  Level Washington Center
Sat 11:15:05 AM 35.9842 -76.8908 40° Northeast 385 443 33,000  Level Washington Center
Sat 11:16:03 AM 36.0664 -76.8075 39° Northeast 385 443 33,000  Level Washington Center
Sat 11:17:04 AM 36.1486 -76.7211 40° Northeast 385 443 33,000  Level Washington Center
Sat 11:18:04 AM 36.2286 -76.6375 40° Northeast 385 443 33,000  Level Washington Center
Sat 11:19:04 AM 36.3108 -76.5508 40° Northeast 385 443 33,000  Level Washington Center
Sat 11:20:05 AM 36.3928 -76.4642 40° Northeast 385 443 33,000  Level Washington Center
Sat 11:21:03 AM 36.4747 -76.3772 40° Northeast 385 443 33,000  Level Washington Center
Sat 11:22:05 AM 36.5567 -76.2928 40° Northeast 385 443 33,000  Level Washington Center
Sat 11:23:03 AM 36.6364 -76.2081 40° Northeast 385 443 33,000  Level Washington Center
Sat 11:24:03 AM 36.7119 -76.1256 41° Northeast 391 450 33,000  Level Washington Center
Sat 11:25:04 AM 36.7936 -76.0356 41° Northeast 391 450 33,000  Level Washington Center
Sat 11:26:05 AM 36.8753 -75.9475 41° Northeast 391 450 33,000  Level Washington Center
Sat 11:27:03 AM 36.9589 -75.8597 40° Northeast 385 443 33,000  Level Washington Center
Sat 11:28:04 AM 37.0447 -75.7689 40° Northeast 390 449 33,000  Level Washington Center
Sat 11:29:05 AM 37.1261 -75.6806 41° Northeast 390 449 33,000  Level Washington Center
Sat 11:30:03 AM 37.2075 -75.5919 41° Northeast 384 442 33,000  Level Washington Center
Sat 11:31:03 AM 37.2908 -75.5031 40° Northeast 384 442 33,000  Level Washington Center
Sat 11:32:04 AM 37.3742 -75.4114 41° Northeast 389 448 33,000  Level Washington Center
Sat 11:33:05 AM 37.4553 -75.3225 41° Northeast 389 448 33,000  Level Washington Center
Sat 11:34:05 AM 37.5386 -75.2303 41° Northeast 384 442 33,000  Level Washington Center
Sat 11:35:05 AM 37.6217 -75.1356 42° Northeast 384 442 33,000  Level Washington Center
Sat 11:36:03 AM 37.7067 -75.0433 41° Northeast 389 448 33,000  Level Washington Center
Sat 11:37:48 AM 37.8544 -74.8783 41° Northeast 406 467 33,000  Level New York Center
Sat 11:38:48 AM 37.9411 -74.7833 41° Northeast 406 467 33,000  Level New York Center
Sat 11:39:48 AM 38.0236 -74.6875 42° Northeast 406 467 33,000  Level New York Center
Sat 11:40:48 AM 38.1208 -74.5872 39° Northeast 406 467 33,000  Level New York Center
Sat 11:41:48 AM 38.2053 -74.4911 42° Northeast 406 467 33,000  Level New York Center
Sat 11:42:48 AM 38.2897 -74.3950 42° Northeast 406 467 33,000  Level New York Center
Sat 11:43:48 AM 38.3761 -74.2958 42° Northeast 406 467 33,000  Level New York Center
Sat 11:44:48 AM 38.4625 -74.2019 40° Northeast 406 467 33,000  Level New York Center
Sat 11:45:48 AM 38.5467 -74.0997 44° Northeast 406 467 33,000  Level New York Center
Sat 11:46:48 AM 38.6308 -74.0028 42° Northeast 406 467 33,000  Level New York Center
Sat 11:47:48 AM 38.7167 -73.9081 41° Northeast 406 467 33,000  Level New York Center
Sat 11:48:48 AM 38.8008 -73.8078 43° Northeast 406 467 33,000  Level New York Center
Sat 11:49:48 AM 38.8867 -73.7075 42° Northeast 406 467 33,000  Level New York Center
Sat 11:50:39 AM 38.9539 -73.6250 44° Northeast 418 481 33,000  Level Boston Center
Sat 11:51:40 AM 39.0389 -73.5258 42° Northeast 413 475 33,000  Level Boston Center
Sat 11:52:42 AM 39.1236 -73.4286 42° Northeast 413 475 33,000  Level Boston Center
Sat 11:53:43 AM 39.2114 -73.3267 42° Northeast 418 481 33,000  Level Boston Center
Sat 11:54:44 AM 39.2950 -73.2306 42° Northeast 410 472 33,000  Level Boston Center
Sat 11:55:45 AM 39.3803 -73.1322 42° Northeast 410 472 33,000  Level Boston Center
Sat 11:56:47 AM 39.4819 -73.0106 43° Northeast 411 473 33,000  Level Boston Center
Sat 11:57:48 AM 39.5653 -72.9081 43° Northeast 411 473 33,000  Level Boston Center
Sat 11:58:49 AM 39.6500 -72.8075 42° Northeast 412 474 33,000  Level Boston Center
Sat 11:59:51 AM 39.7350 -72.7053 43° Northeast 413 475 33,000  Level Boston Center
Sat 12:00:52 PM 39.8194 -72.6019 43° Northeast 414 476 33,000  Level Boston Center
Sat 12:01:53 PM 39.9036 -72.5006 43° Northeast 415 478 33,000 -344 Level Boston Center
Sat 12:02:54 PM 39.9892 -72.3981 43° Northeast 415 478 32,300 -1,317 Descending Boston Center
Sat 12:03:56 PM 40.0786 -72.2875 43° Northeast 433 498 30,300 -2,146 Descending Boston Center
Sat 12:04:57 PM 40.1878 -72.1558 43° Northeast 443 510 27,900 -2,115 Descending Boston Center
Sat 12:05:58 PM 40.2758 -72.0467 43° Northeast 432 497 26,000 -1,721 Descending Boston Center
Sat 12:06:59 PM 40.3567 -71.9475 43° Northeast 404 465 24,400 -1,512 Descending Boston Center
Sat 12:08:01 PM 40.4331 -71.8542 43° Northeast 389 448 22,900 -1,561 Descending Boston Center
Sat 12:09:02 PM 40.5086 -71.7622 43° Northeast 367 422 21,200 -1,820 Descending Boston Center
Sat 12:10:03 PM 40.5803 -71.6717 44° Northeast 361 415 19,200 -1,672 Descending Boston Center
Sat 12:11:04 PM 40.6467 -71.5892 43° Northeast 347 399 17,800 -1,171 Descending Boston Center
Sat 12:12:06 PM 40.7133 -71.5064 43° Northeast 335 386 16,800 -1,659 Descending Boston Center
Sat 12:13:07 PM 40.7942 -71.4053 43° Northeast 335 386 14,400 -2,164 Descending Boston Center
Sat 12:14:08 PM 40.8592 -71.3231 44° Northeast 331 381 12,400 -1,659 Descending Boston Center
Sat 12:15:10 PM 40.9244 -71.2425 43° Northeast 326 375 11,000 -683 Descending Boston Center
Sat 12:16:11 PM 40.9872 -71.1606 45° Northeast 319 367 11,000 -49 Level Boston Center
Sat 12:17:12 PM 41.0578 -71.0728 43° Northeast 326 375 10,900 -49 Descending Boston Center
Sat 12:18:13 PM 41.1236 -70.9892 44° Northeast 326 375 10,900  Level Boston Center
Sat 12:19:14 PM 41.1872 -70.9072 44° Northeast 325 374 10,900 -146 Level Boston Center
Sat 12:20:16 PM 41.2478 -70.8303 44° Northeast 322 371 10,600 -829 Descending Boston Center
Sat 12:21:17 PM 41.3183 -70.7386 44° Northeast 315 362 9,200 -1,475 Descending Boston Center
Sat 12:22:18 PM 41.3675 -70.6456 55° Northeast 311 358 7,600 -1,082 Descending Boston Center
Sat 12:23:19 PM 41.4167 -70.5544 54° Northeast 283 326 7,000 -732 Descending Boston Center
Sat 12:24:21 PM 41.4614 -70.4733 54° Northeast 276 318 6,100 -1,220 Descending Boston Center
Sat 12:25:22 PM 41.5036 -70.3861 57° Northeast 278 320 4,500 -1,525 Descending Boston Center
Sat 12:26:23 PM 41.5439 -70.3097 55° Northeast 268 308 3,000 -1,279 Descending Boston Center
Sat 12:27:24 PM 41.5867 -70.2536 44° Northeast 241 277 1,900 -1,073 Descending Boston Center
Sat 12:28:26 PM 41.6319 -70.2453 North 192 221 800 -829 Descending Boston Center
Sat 12:29:27 PM 41.6586 -70.2725 323° Northwest 145 167 200 2,066 Descending Boston Center
Sat 12:30:28 PM 41.6833 -70.3011 319° Northwest 140 161 5,000 4,721 Climbing Boston Center

Login

Don't have an account? Register now (free) for customized features, flight alerts, and more!